createdAt,value
2022-07-31T00:53:42.089Z,14.20
2022-07-31T00:56:08.779Z,13.60
2022-07-31T01:01:04.998Z,13.80
2022-07-31T01:03:31.692Z,13.90
2022-07-31T01:05:58.332Z,13.60
2022-07-31T01:11:04.227Z,13.70
2022-07-31T02:22:51.055Z,13.50
2022-07-31T04:11:45.456Z,13.20
2022-07-31T04:14:12.290Z,13.00
2022-07-31T04:16:38.904Z,12.80
2022-07-31T04:19:05.516Z,14.10
2022-07-31T04:21:32.166Z,13.00
2022-07-31T04:23:58.839Z,12.80
2022-07-31T04:26:26.079Z,12.90
2022-07-31T04:28:53.234Z,12.90
2022-07-31T04:31:19.892Z,13.00
2022-07-31T04:33:48.912Z,13.00
2022-07-31T04:36:29.721Z,13.00
2022-07-31T04:38:56.846Z,13.10
2022-07-31T04:41:23.514Z,13.10
2022-07-31T04:43:50.119Z,13.00
2022-07-31T04:46:19.026Z,13.40
2022-07-31T04:48:45.850Z,13.40
2022-07-31T04:56:29.123Z,13.60
2022-07-31T05:01:22.836Z,13.70
2022-07-31T05:03:49.541Z,13.00
2022-07-31T05:06:16.251Z,14.80
2022-07-31T05:11:22.738Z,15.20
2022-07-31T05:16:16.782Z,13.60
2022-07-31T05:18:45.272Z,14.00
2022-07-31T05:23:42.912Z,14.40
2022-07-31T05:26:10.227Z,14.50
2022-07-31T05:28:37.187Z,14.60
2022-07-31T05:31:04.203Z,14.50
2022-07-31T05:33:30.999Z,14.00
2022-07-31T05:35:57.886Z,14.20
2022-07-31T05:38:24.536Z,13.80
2022-07-31T05:40:51.196Z,15.10
2022-07-31T05:50:43.305Z,15.40
2022-07-31T05:53:13.116Z,17.00
2022-07-31T05:55:39.831Z,17.70
2022-07-31T05:58:06.740Z,15.80
2022-07-31T06:00:33.923Z,15.50
2022-07-31T06:03:00.794Z,15.30
2022-07-31T06:05:28.088Z,15.60
2022-07-31T06:10:22.019Z,15.90
2022-07-31T06:12:48.867Z,15.20
2022-07-31T06:20:11.789Z,16.70
2022-07-31T06:22:40.182Z,16.80
2022-07-31T06:25:08.757Z,16.60
2022-07-31T06:27:37.315Z,16.80
2022-07-31T06:30:06.432Z,16.80
2022-07-31T06:32:33.589Z,16.80
2022-07-31T06:35:00.376Z,17.90
2022-07-31T07:26:59.586Z,19.90
2022-07-31T07:41:41.835Z,20.80
2022-07-31T07:46:36.094Z,21.20
2022-07-31T07:49:03.928Z,21.70
2022-07-31T07:51:30.630Z,21.20
2022-07-31T07:53:57.587Z,21.30
2022-07-31T07:56:24.508Z,20.90
2022-07-31T08:03:51.743Z,21.50
2022-07-31T08:11:17.350Z,21.90
2022-07-31T08:13:49.735Z,22.00
2022-07-31T08:31:05.451Z,22.60
2022-07-31T08:36:00.896Z,23.00
2022-07-31T08:38:28.704Z,23.10
2022-07-31T08:40:55.439Z,24.80
2022-07-31T08:46:09.170Z,23.50
2022-07-31T08:48:39.757Z,24.20
2022-07-31T08:53:36.085Z,23.90
2022-07-31T08:56:03.868Z,24.50
2022-07-31T08:58:30.600Z,25.00
2022-07-31T09:00:57.756Z,23.60
2022-07-31T09:03:24.613Z,25.50
2022-07-31T09:05:51.271Z,24.10
2022-07-31T09:10:49.618Z,23.90
2022-07-31T09:15:44.692Z,23.30
2022-07-31T09:18:17.976Z,25.00
2022-07-31T09:20:53.753Z,24.10
2022-07-31T09:23:20.394Z,25.30
2022-07-31T09:25:53.797Z,25.30
2022-07-31T09:28:24.861Z,24.60
2022-07-31T09:30:56.505Z,24.50
2022-07-31T09:33:23.817Z,24.50
2022-07-31T09:35:51.832Z,25.10
2022-07-31T09:50:55.262Z,26.40
2022-07-31T09:53:22.334Z,27.20
2022-07-31T09:58:15.992Z,26.60
2022-07-31T10:05:38.088Z,27.10
2022-07-31T10:13:00.435Z,26.30
2022-07-31T10:20:23.714Z,26.90
2022-07-31T10:22:54.535Z,26.80
2022-07-31T10:57:23.338Z,28.90
2022-07-31T10:59:50.241Z,29.10
2022-07-31T11:02:33.511Z,29.10
2022-07-31T11:05:16.985Z,29.40
2022-07-31T11:10:17.133Z,30.50
2022-07-31T11:12:44.080Z,31.30
2022-07-31T11:15:17.643Z,32.20
2022-07-31T11:18:20.215Z,31.90
2022-07-31T11:20:31.546Z,30.90
2022-07-31T11:23:04.623Z,30.90
2022-07-31T11:25:32.449Z,30.10
2022-07-31T11:28:10.601Z,29.90
2022-07-31T11:30:53.479Z,30.20
2022-07-31T11:33:31.672Z,30.30
2022-07-31T11:36:13.964Z,30.70
2022-07-31T11:38:41.740Z,30.50
2022-07-31T11:41:08.735Z,30.20
2022-07-31T11:43:37.803Z,30.80
2022-07-31T11:46:04.859Z,30.20
2022-07-31T11:48:42.164Z,30.20
2022-07-31T11:51:16.563Z,29.80
2022-07-31T11:53:43.617Z,30.50
2022-07-31T11:56:10.496Z,31.20
2022-07-31T11:58:37.825Z,30.50
2022-07-31T12:01:05.402Z,30.40
2022-07-31T12:03:36.570Z,29.40
2022-07-31T12:06:03.663Z,31.20
2022-07-31T12:08:30.565Z,30.40
2022-07-31T12:10:58.059Z,30.50
2022-07-31T12:15:54.759Z,28.80
2022-07-31T12:18:21.606Z,28.60
2022-07-31T12:20:54.325Z,29.20
2022-07-31T12:23:40.608Z,28.70
2022-07-31T12:26:07.819Z,29.40
2022-07-31T12:31:01.777Z,28.00
2022-07-31T12:33:28.514Z,29.50
2022-07-31T12:35:57.230Z,28.90
2022-07-31T12:38:40.832Z,27.80
2022-07-31T12:41:17.973Z,29.20
2022-07-31T12:43:50.984Z,28.10
2022-07-31T12:46:34.853Z,29.20
2022-07-31T12:49:01.625Z,27.50
2022-07-31T12:51:45.439Z,27.50
2022-07-31T12:54:14.273Z,29.10
2022-07-31T12:56:41.159Z,30.10
2022-07-31T12:59:08.602Z,29.30
2022-07-31T13:01:35.388Z,29.50
2022-07-31T13:04:03.250Z,30.40
2022-07-31T13:06:30.984Z,29.30
2022-07-31T13:08:57.632Z,28.90
2022-07-31T13:11:30.564Z,28.80
2022-07-31T13:14:13.796Z,28.90
2022-07-31T13:16:40.429Z,29.40
2022-07-31T13:19:07.986Z,29.20
2022-07-31T13:21:40.032Z,28.00
2022-07-31T13:24:17.047Z,28.10
2022-07-31T13:26:45.376Z,28.30
2022-07-31T13:29:12.403Z,29.00
2022-07-31T13:31:39.346Z,29.50
2022-07-31T13:34:06.024Z,28.00
2022-07-31T13:36:36.036Z,28.80
2022-07-31T13:39:06.862Z,28.80
2022-07-31T13:41:35.606Z,29.50
2022-07-31T13:44:03.199Z,29.00
2022-07-31T13:46:30.247Z,28.10
2022-07-31T13:48:58.854Z,29.00
2022-07-31T13:53:55.124Z,27.70
2022-07-31T13:56:36.822Z,28.40
2022-07-31T13:59:08.490Z,27.90
2022-07-31T14:02:04.134Z,27.30
2022-07-31T14:04:23.514Z,27.30
2022-07-31T14:06:50.672Z,28.60
2022-07-31T14:09:19.335Z,27.20
2022-07-31T14:11:46.115Z,28.10
2022-07-31T14:19:12.359Z,28.90
2022-07-31T14:21:38.996Z,29.60
2022-07-31T14:24:16.884Z,29.60
2022-07-31T14:26:43.628Z,30.80
2022-07-31T14:29:10.250Z,31.50
2022-07-31T14:31:36.930Z,30.20
2022-07-31T14:34:03.655Z,30.40
2022-07-31T14:36:30.332Z,29.90
2022-07-31T14:38:56.978Z,29.00
2022-07-31T14:41:23.743Z,28.80
2022-07-31T14:43:50.385Z,28.00
2022-07-31T14:48:44.139Z,27.70
2022-07-31T14:51:16.637Z,29.40
2022-07-31T14:53:43.256Z,29.50
2022-07-31T14:56:09.994Z,29.80
2022-07-31T14:58:58.658Z,29.80
2022-07-31T15:01:23.301Z,30.40
2022-07-31T15:03:53.367Z,30.40
2022-07-31T15:06:37.584Z,29.60
2022-07-31T15:09:08.026Z,29.30
2022-07-31T15:11:59.365Z,31.20
2022-07-31T15:14:21.308Z,32.30
2022-07-31T15:16:49.648Z,32.50
2022-07-31T15:19:16.684Z,31.30
2022-07-31T15:22:10.447Z,32.20
2022-07-31T15:24:33.127Z,30.80
2022-07-31T15:26:59.874Z,31.20
2022-07-31T15:32:13.777Z,28.90
2022-07-31T15:34:40.388Z,29.50
2022-07-31T15:37:07.592Z,29.40
2022-07-31T15:39:34.587Z,28.80
2022-07-31T15:42:02.449Z,29.40
2022-07-31T15:44:29.186Z,29.40
2022-07-31T15:46:55.897Z,29.80
2022-07-31T15:49:22.682Z,29.10
2022-07-31T15:51:49.422Z,29.20
2022-07-31T15:54:16.167Z,28.90
2022-07-31T15:56:42.919Z,28.70
2022-07-31T15:59:09.544Z,28.70
2022-07-31T16:01:37.629Z,29.00
2022-07-31T16:04:16.473Z,28.80
2022-07-31T16:06:49.041Z,28.60
2022-07-31T16:09:17.255Z,28.60
2022-07-31T16:12:03.563Z,28.80
2022-07-31T16:14:30.558Z,29.00
2022-07-31T16:17:02.585Z,28.70
2022-07-31T16:19:29.249Z,29.20
2022-07-31T16:22:00.424Z,28.50
2022-07-31T16:24:27.498Z,28.50
2022-07-31T16:26:54.322Z,29.70
2022-07-31T16:29:59.135Z,31.00
2022-07-31T16:32:10.794Z,30.90
2022-07-31T16:34:37.453Z,31.00
2022-07-31T16:37:04.465Z,30.50
2022-07-31T16:39:31.309Z,30.30
2022-07-31T16:41:57.953Z,30.40
2022-07-31T16:44:24.597Z,29.60
2022-07-31T16:46:54.740Z,29.00
2022-07-31T16:49:35.481Z,29.30
2022-07-31T16:52:03.330Z,29.80
2022-07-31T16:54:29.967Z,29.00
2022-07-31T16:59:23.870Z,28.60
2022-07-31T17:01:56.943Z,28.70
2022-07-31T17:04:27.002Z,29.20
2022-07-31T17:06:53.704Z,28.90
2022-07-31T17:09:20.412Z,28.90
2022-07-31T17:11:48.107Z,29.60
2022-07-31T17:14:15.748Z,29.30
2022-07-31T17:24:15.661Z,28.10
2022-07-31T17:31:37.445Z,27.90
2022-07-31T17:34:08.906Z,29.70
2022-07-31T17:36:36.321Z,27.80
2022-07-31T17:39:03.241Z,27.40
2022-07-31T17:41:30.005Z,29.30
2022-07-31T17:43:56.651Z,29.20
2022-07-31T17:46:34.388Z,28.30
2022-07-31T17:49:03.452Z,29.00
2022-07-31T17:51:32.247Z,27.30
2022-07-31T18:06:22.332Z,26.80
2022-07-31T18:08:49.021Z,28.20
2022-07-31T18:11:15.680Z,27.50
2022-07-31T18:13:48.575Z,28.30
2022-07-31T18:18:45.572Z,26.10
2022-07-31T18:21:12.278Z,25.90
2022-07-31T18:23:43.658Z,25.90
2022-07-31T18:26:14.561Z,27.10
2022-07-31T18:28:41.277Z,26.60
2022-07-31T18:33:42.605Z,25.50
2022-07-31T18:41:05.079Z,25.20
2022-07-31T18:53:29.342Z,24.70
2022-07-31T18:55:56.007Z,23.40
2022-07-31T18:58:22.674Z,23.50
2022-07-31T19:00:54.595Z,25.20
2022-07-31T19:03:21.737Z,25.80
2022-07-31T19:05:50.116Z,25.20
2022-07-31T19:08:16.756Z,25.00
2022-07-31T19:10:43.410Z,25.30
2022-07-31T19:13:18.726Z,24.70
2022-07-31T19:15:51.599Z,25.10
2022-07-31T19:18:24.378Z,24.90
2022-07-31T19:21:17.723Z,25.70
2022-07-31T19:28:40.182Z,24.00
2022-07-31T19:31:07.074Z,23.90
2022-07-31T19:33:33.744Z,24.10
2022-07-31T19:36:02.815Z,24.90
2022-07-31T19:40:57.131Z,24.10
2022-07-31T19:48:29.236Z,23.50
2022-07-31T19:53:23.843Z,23.50
2022-07-31T19:55:50.493Z,24.10
2022-07-31T19:58:21.203Z,23.50
2022-07-31T20:00:47.836Z,23.00
2022-07-31T20:08:08.678Z,22.80
2022-07-31T20:10:35.331Z,22.60
2022-07-31T20:13:02.042Z,22.40
2022-07-31T20:18:26.815Z,22.40
2022-07-31T20:20:56.885Z,23.60
2022-07-31T20:23:23.840Z,22.10
2022-07-31T20:25:50.718Z,22.30
2022-07-31T20:28:17.422Z,21.70
2022-07-31T20:33:13.400Z,22.20
2022-07-31T20:35:49.310Z,22.90
2022-07-31T20:40:53.056Z,22.00
2022-07-31T20:43:22.158Z,22.30
2022-07-31T20:45:48.846Z,23.50
2022-07-31T20:48:17.657Z,23.20
2022-07-31T20:50:48.324Z,22.60
2022-07-31T20:53:15.544Z,23.30
2022-07-31T20:55:46.891Z,23.50
2022-07-31T21:03:07.918Z,21.40
2022-07-31T23:09:59.474Z,18.70
2022-07-31T23:44:55.514Z,18.10
2022-07-31T23:47:24.107Z,18.10
2022-07-31T23:50:09.897Z,17.80
2022-07-31T23:52:36.507Z,18.10
2022-07-31T23:55:03.167Z,17.90
2022-07-31T23:57:34.285Z,18.80
